Lakeview, Arkansas
Current Conditions -  °F | °C
As of 5:53 AM on Friday 21 Nov 2014 (Local Time) from KBPK Reporting Station
Overcast Overcast  
Wind Chill: 40°   Ceiling: 2100
Heat Index: 43°   Visibility: 10mi
Dew Point: 25°   Wind: 5mph
Humidity: 49%   Direction: 110°ESE
Pressure: 30.25"   Gusts: NA
Location:  36.37°N, 92.55°W
Report Text: KBPK 211153Z AUTO 11004KT 10SM OVC021 06/M04 A3025 RMK AO2 SLP246 T00611039 10061 20022 53003
Loading
Personal Weather Stations






























Interactive Weather Map New forecast layout! Learn more

10-Day Weather Forecast

Advertisements
Track Severe Weather on mobile